createdAt,value
2023-05-25T00:07:24.556Z,7.88
2023-05-25T00:12:26.999Z,4.82
2023-05-25T00:17:31.313Z,6.75
2023-05-25T00:22:40.454Z,4.10
2023-05-25T00:27:42.752Z,8.93
2023-05-25T00:32:45.245Z,6.75
2023-05-25T00:37:48.130Z,9.52
2023-05-25T00:42:53.184Z,11.07
2023-05-25T00:47:56.388Z,10.25
2023-05-25T00:52:58.842Z,9.98
2023-05-25T00:58:02.717Z,5.97
2023-05-25T01:03:18.186Z,5.65
2023-05-25T01:08:23.178Z,4.80
2023-05-25T01:13:26.024Z,6.10
2023-05-25T01:18:28.753Z,10.52
2023-05-25T01:23:35.641Z,6.88
2023-05-25T01:28:43.264Z,8.80
2023-05-25T01:33:47.225Z,9.32
2023-05-25T01:38:50.290Z,4.53
2023-05-25T01:43:53.896Z,7.32
2023-05-25T01:49:14.161Z,7.35
2023-05-25T01:54:20.682Z,6.50
2023-05-25T01:59:23.726Z,6.93
2023-05-25T02:04:27.617Z,8.38
2023-05-25T02:09:30.003Z,7.78
2023-05-25T02:14:32.348Z,9.57
2023-05-25T02:19:35.650Z,8.68
2023-05-25T02:24:38.567Z,9.10
2023-05-25T02:29:43.074Z,12.13
2023-05-25T02:34:47.418Z,12.85
2023-05-25T02:39:49.986Z,9.18
2023-05-25T02:44:52.461Z,12.82
2023-05-25T02:49:54.890Z,20.40
2023-05-25T02:54:57.369Z,17.13
2023-05-25T02:59:59.750Z,18.48
2023-05-25T03:05:04.135Z,17.60
2023-05-25T03:10:07.511Z,13.45
2023-05-25T03:15:13.539Z,13.68
2023-05-25T03:20:17.245Z,8.75
2023-05-25T03:25:19.732Z,17.38
2023-05-25T03:30:25.249Z,13.82
2023-05-25T03:35:27.689Z,10.35
2023-05-25T03:40:29.905Z,18.60
2023-05-25T03:45:32.343Z,16.98
2023-05-25T03:50:35.184Z,14.40
2023-05-25T03:55:37.460Z,12.75
2023-05-25T04:00:39.761Z,19.60
2023-05-25T04:05:42.609Z,14.85
2023-05-25T04:10:47.760Z,20.60
2023-05-25T04:15:51.548Z,16.13
2023-05-25T04:20:55.857Z,11.77
2023-05-25T04:25:58.054Z,12.77
2023-05-25T04:31:00.378Z,17.23
2023-05-25T04:36:02.702Z,19.00
2023-05-25T04:41:06.306Z,11.30
2023-05-25T04:46:09.399Z,12.25
2023-05-25T04:51:12.553Z,7.22
2023-05-25T04:56:14.960Z,10.45
2023-05-25T05:01:17.354Z,10.15
2023-05-25T05:06:19.623Z,9.32
2023-05-25T05:11:23.987Z,7.15
2023-05-25T05:16:26.421Z,8.23
2023-05-25T05:21:28.772Z,6.57
2023-05-25T05:26:34.269Z,7.75
2023-05-25T05:31:46.832Z,12.98
2023-05-25T05:36:57.327Z,15.38
2023-05-25T05:42:01.866Z,12.45
2023-05-25T05:47:04.320Z,5.65
2023-05-25T05:52:07.336Z,7.82
2023-05-25T05:57:09.653Z,11.38
2023-05-25T06:02:12.117Z,11.48
2023-05-25T06:07:14.483Z,11.52
2023-05-25T06:12:18.232Z,6.50
2023-05-25T06:17:20.608Z,14.20
2023-05-25T06:22:24.434Z,8.65
2023-05-25T06:27:26.708Z,9.30
2023-05-25T06:32:29.028Z,12.18
2023-05-25T06:37:35.847Z,11.55
2023-05-25T06:42:38.363Z,7.22
2023-05-25T06:47:40.654Z,6.50
2023-05-25T06:52:43.091Z,12.55
2023-05-25T06:57:45.482Z,9.82
2023-05-25T07:02:47.842Z,16.55
2023-05-25T07:07:50.244Z,8.68
2023-05-25T07:12:52.909Z,10.55
2023-05-25T07:17:57.664Z,6.43
2023-05-25T07:23:00.030Z,5.60
2023-05-25T07:28:03.299Z,5.57
2023-05-25T07:33:06.128Z,13.05
2023-05-25T07:38:08.597Z,6.75
2023-05-25T07:43:10.821Z,9.82
2023-05-25T07:48:13.142Z,7.78
2023-05-25T07:53:15.542Z,6.15
2023-05-25T07:58:17.981Z,5.47
2023-05-25T08:03:31.783Z,5.97
2023-05-25T08:08:42.518Z,4.28
2023-05-25T08:13:45.038Z,3.17
2023-05-25T08:18:47.380Z,4.88
2023-05-25T08:23:51.078Z,3.58
2023-05-25T08:28:53.411Z,4.80
2023-05-25T08:33:56.010Z,8.73
2023-05-25T08:38:58.258Z,7.22
2023-05-25T08:44:06.702Z,6.15
2023-05-25T08:49:13.739Z,7.57
2023-05-25T08:54:25.227Z,8.10
2023-05-25T08:59:35.556Z,4.80
2023-05-25T09:04:38.880Z,9.88
2023-05-25T09:09:41.862Z,6.80
2023-05-25T09:14:48.573Z,5.50
2023-05-25T09:19:51.543Z,4.10
2023-05-25T09:24:55.443Z,4.88
2023-05-25T09:30:01.626Z,6.22
2023-05-25T09:35:14.596Z,3.65
2023-05-25T09:40:17.634Z,4.00
2023-05-25T09:45:20.154Z,7.00
2023-05-25T09:50:23.098Z,4.63
2023-05-25T09:55:25.388Z,3.95
2023-05-25T10:00:28.068Z,2.30
2023-05-25T10:05:30.504Z,3.50
2023-05-25T10:10:33.433Z,4.93
2023-05-25T10:15:40.227Z,3.72
2023-05-25T10:20:44.726Z,3.30
2023-05-25T10:25:55.746Z,3.53
2023-05-25T10:31:00.052Z,4.97
2023-05-25T10:36:10.727Z,6.93
2023-05-25T10:41:16.480Z,4.88
2023-05-25T10:46:19.622Z,6.93
2023-05-25T10:51:22.674Z,7.15
2023-05-25T10:56:24.976Z,7.72
2023-05-25T11:01:27.529Z,4.78
2023-05-25T11:06:40.872Z,6.85
2023-05-25T11:11:43.137Z,9.45
2023-05-25T11:17:05.311Z,4.22
2023-05-25T11:22:21.701Z,4.22
2023-05-25T11:27:33.622Z,9.07
2023-05-25T11:32:40.122Z,6.88
2023-05-25T11:37:50.134Z,4.15
2023-05-25T11:42:53.424Z,4.63
2023-05-25T11:47:55.766Z,10.60
2023-05-25T11:52:58.447Z,7.93
2023-05-25T11:58:00.867Z,7.75
2023-05-25T12:03:10.941Z,4.63
2023-05-25T12:08:13.336Z,9.10
2023-05-25T12:13:15.847Z,6.75
2023-05-25T12:18:18.420Z,6.07
2023-05-25T12:23:21.481Z,4.63
2023-05-25T12:28:23.701Z,3.75
2023-05-25T12:33:26.088Z,8.60
2023-05-25T12:38:28.320Z,3.33
2023-05-25T12:43:40.894Z,4.60
2023-05-25T12:48:43.310Z,5.68
2023-05-25T12:53:50.864Z,5.97
2023-05-25T12:58:53.108Z,5.63
2023-05-25T13:03:55.364Z,3.35
2023-05-25T13:08:57.553Z,5.95
2023-05-25T13:14:00.245Z,7.45
2023-05-25T13:19:03.237Z,5.30
2023-05-25T13:24:06.106Z,3.75
2023-05-25T13:29:08.400Z,3.10
2023-05-25T13:34:10.865Z,4.18
2023-05-25T13:39:14.021Z,2.50
2023-05-25T13:44:17.750Z,4.35
2023-05-25T13:49:20.374Z,7.50
2023-05-25T13:54:23.760Z,3.75
2023-05-25T13:59:26.035Z,6.13
2023-05-25T14:04:28.313Z,5.40
2023-05-25T14:09:30.567Z,4.60
2023-05-25T14:14:33.114Z,3.67
2023-05-25T14:19:35.782Z,4.38
2023-05-25T14:24:38.331Z,4.32
2023-05-25T14:29:40.611Z,4.47
2023-05-25T14:34:43.238Z,2.47
2023-05-25T14:39:45.441Z,6.97
2023-05-25T14:44:47.733Z,3.00
2023-05-25T14:49:50.046Z,2.00
2023-05-25T14:54:52.328Z,2.63
2023-05-25T14:59:57.546Z,4.03
2023-05-25T15:04:59.967Z,5.90
2023-05-25T15:10:02.533Z,3.38
2023-05-25T15:15:05.046Z,8.43
2023-05-25T15:20:07.812Z,4.50
2023-05-25T15:25:10.188Z,8.38
2023-05-25T15:30:12.777Z,11.25
2023-05-25T15:35:15.586Z,7.72
2023-05-25T15:40:17.895Z,7.40
2023-05-25T15:45:20.328Z,9.07
2023-05-25T15:50:22.565Z,7.38
2023-05-25T15:55:24.912Z,5.72
2023-05-25T16:00:27.507Z,7.68
2023-05-25T16:05:30.548Z,5.30
2023-05-25T16:10:32.824Z,6.63
2023-05-25T16:15:35.105Z,4.78
2023-05-25T16:20:37.461Z,12.20
2023-05-25T16:25:39.799Z,6.75
2023-05-25T16:30:42.133Z,8.63
2023-05-25T16:35:44.752Z,10.48
2023-05-25T16:40:47.236Z,5.57
2023-05-25T16:45:49.544Z,6.57
2023-05-25T16:50:51.840Z,5.47
2023-05-25T16:55:54.113Z,5.20
2023-05-25T17:00:56.412Z,5.30
2023-05-25T17:05:58.846Z,6.32
2023-05-25T17:11:01.217Z,7.78
2023-05-25T17:16:03.540Z,6.85
2023-05-25T17:21:05.867Z,7.18
2023-05-25T17:26:08.214Z,6.45
2023-05-25T17:31:10.588Z,12.52
2023-05-25T17:36:12.896Z,5.97
2023-05-25T17:41:15.367Z,8.32
2023-05-25T17:46:17.903Z,7.35
2023-05-25T17:51:21.324Z,8.82
2023-05-25T17:56:23.572Z,9.15
2023-05-25T18:01:26.148Z,11.73
2023-05-25T18:06:29.369Z,6.68
2023-05-25T18:11:33.927Z,7.75
2023-05-25T18:16:41.852Z,14.45
2023-05-25T18:21:44.274Z,6.07
2023-05-25T18:26:46.861Z,10.00
2023-05-25T18:31:49.337Z,9.50
2023-05-25T18:36:51.818Z,7.85
2023-05-25T18:41:54.098Z,7.68
2023-05-25T18:46:57.273Z,9.40
2023-05-25T18:52:00.306Z,6.72
2023-05-25T18:57:03.521Z,6.63
2023-05-25T19:02:06.075Z,8.00
2023-05-25T19:07:08.459Z,10.32
2023-05-25T19:12:10.737Z,7.30
2023-05-25T19:17:13.023Z,7.45
2023-05-25T19:22:15.330Z,5.00
2023-05-25T19:27:20.331Z,5.10
2023-05-25T19:32:22.651Z,6.07
2023-05-25T19:37:27.265Z,5.53
2023-05-25T19:42:29.577Z,9.20
2023-05-25T19:47:31.858Z,8.35
2023-05-25T19:52:35.382Z,6.75
2023-05-25T19:57:38.820Z,9.48
2023-05-25T20:02:41.269Z,8.63
2023-05-25T20:07:44.430Z,6.25
2023-05-25T20:12:46.785Z,12.20
2023-05-25T20:17:49.101Z,9.20
2023-05-25T20:22:51.344Z,12.00
2023-05-25T20:27:53.676Z,7.97
2023-05-25T20:32:55.971Z,9.43
2023-05-25T20:37:58.275Z,10.85
2023-05-25T20:43:00.508Z,7.13
2023-05-25T20:48:04.366Z,6.18
2023-05-25T20:53:06.743Z,8.30
2023-05-25T20:58:08.956Z,7.25
2023-05-25T21:03:11.400Z,13.00
2023-05-25T21:08:13.855Z,9.88
2023-05-25T21:13:16.114Z,13.73
2023-05-25T21:18:18.500Z,11.55
2023-05-25T21:23:21.076Z,6.65
2023-05-25T21:28:24.235Z,6.13
2023-05-25T21:33:26.640Z,6.18
2023-05-25T21:38:28.933Z,9.07
2023-05-25T21:43:31.233Z,8.32
2023-05-25T21:48:33.506Z,9.07
2023-05-25T21:53:35.814Z,12.98
2023-05-25T21:58:37.999Z,12.48
2023-05-25T22:03:40.243Z,7.25
2023-05-25T22:08:42.640Z,7.25
2023-05-25T22:13:45.003Z,9.55
2023-05-25T22:18:47.306Z,7.38
2023-05-25T22:23:49.512Z,7.78
2023-05-25T22:28:51.803Z,10.63
2023-05-25T22:33:54.126Z,9.93
2023-05-25T22:38:56.333Z,7.45
2023-05-25T22:43:58.597Z,7.00
2023-05-25T22:49:00.896Z,7.68
2023-05-25T22:54:03.301Z,4.38
2023-05-25T22:59:05.537Z,9.15
2023-05-25T23:04:07.934Z,5.85
2023-05-25T23:09:10.390Z,7.63
2023-05-25T23:14:12.640Z,8.13
2023-05-25T23:19:17.160Z,9.25
2023-05-25T23:24:19.391Z,14.02
2023-05-25T23:29:21.654Z,7.70
2023-05-25T23:34:23.936Z,9.05
2023-05-25T23:39:26.279Z,9.75
2023-05-25T23:44:28.526Z,9.05
2023-05-25T23:49:30.848Z,6.97
2023-05-25T23:54:33.552Z,8.60
2023-05-25T23:59:36.481Z,8.40
